Time;durP1;ratioP1;P1;durP2;ratioP2;P2;SDS_P1;SDS_P2;PMS_P1;PMS_P2;Temp;Humidity;BMP_temperature;BMP_pressure;BME280_temperature;BME280_humidity;BME280_pressure;Samples;Min_cycle;Max_cycle;Signal;HPM_P1;HPM_P2
2021/06/28 00:01:05;;;;;;;21.65;10.82;;;;;;;20.35;74.42;99601.53;5110674;28;20024;-71
2021/06/28 00:03:31;;;;;;;25.75;11.15;;;;;;;20.13;74.41;99612.78;5113688;28;20047;-71
2021/06/28 00:05:57;;;;;;;25.42;12.68;;;;;;;20.14;74.69;99607.88;5112426;28;20118;-71
2021/06/28 00:08:22;;;;;;;29.38;10.95;;;;;;;20.05;75.39;99606.25;5112321;28;20097;-71
2021/06/28 00:10:48;;;;;;;26.08;11.38;;;;;;;20.04;75.28;99618.81;5113755;28;20035;-72
2021/06/28 00:13:13;;;;;;;19.08;11.75;;;;;;;19.97;76.13;99600.91;5111965;28;20039;-71
2021/06/28 00:15:39;;;;;;;21.92;13.43;;;;;;;20.14;74.88;99614.41;5113678;28;20031;-72
2021/06/28 00:18:06;;;;;;;25.17;12.93;;;;;;;20.10;75.35;99615.59;5113492;28;20026;-71
2021/06/28 00:20:33;;;;;;;32.03;14.00;;;;;;;20.07;75.58;99620.03;5113290;28;20043;-71
2021/06/28 00:22:59;;;;;;;26.50;15.25;;;;;;;20.26;75.13;99618.09;5113452;28;20023;-70
2021/06/28 00:25:25;;;;;;;23.40;13.98;;;;;;;20.04;75.27;99623.66;5113232;27;20102;-71
2021/06/28 00:27:51;;;;;;;29.38;14.15;;;;;;;20.08;75.86;99618.00;5113130;28;20042;-71
2021/06/28 00:30:20;;;;;;;21.50;14.88;;;;;;;20.02;75.81;99620.41;5113263;28;20055;-70
2021/06/28 00:32:47;;;;;;;28.27;17.00;;;;;;;20.06;76.20;99621.25;5111978;28;20019;-71
2021/06/28 00:35:12;;;;;;;32.05;15.55;;;;;;;19.94;76.12;99619.56;5112901;28;20082;-71
2021/06/28 00:37:38;;;;;;;25.90;15.32;;;;;;;19.88;76.76;99615.41;5111874;28;20540;-72
2021/06/28 00:40:07;;;;;;;26.05;13.60;;;;;;;19.86;76.49;99620.69;5113455;27;20031;-71
2021/06/28 00:42:33;;;;;;;28.88;15.82;;;;;;;19.90;76.52;99618.66;5112954;28;20031;-71
2021/06/28 00:44:58;;;;;;;25.17;14.85;;;;;;;19.86;76.86;99615.00;5113371;28;20038;-71
2021/06/28 00:47:24;;;;;;;24.13;14.85;;;;;;;19.90;76.30;99613.81;5112869;27;20023;-72
2021/06/28 00:49:50;;;;;;;31.67;15.60;;;;;;;19.81;76.96;99615.38;5113281;28;20028;-71
2021/06/28 00:52:16;;;;;;;27.50;16.38;;;;;;;19.76;77.12;99617.38;5113106;28;20027;-71
2021/06/28 00:54:42;;;;;;;34.95;16.17;;;;;;;19.88;75.63;99616.25;5113023;28;20042;-71
2021/06/28 00:57:08;;;;;;;27.63;15.93;;;;;;;19.96;75.09;99605.78;5112778;28;20038;-71
2021/06/28 00:59:34;;;;;;;24.23;15.10;;;;;;;19.91;75.75;99609.78;5112521;28;20039;-72
2021/06/28 01:02:02;;;;;;;24.52;14.82;;;;;;;19.81;76.08;99606.88;5112696;28;20450;-72
2021/06/28 01:04:31;;;;;;;22.05;14.07;;;;;;;19.83;76.02;99612.97;5111523;28;20066;-71
2021/06/28 01:06:57;;;;;;;31.70;15.50;;;;;;;19.67;76.61;99616.09;5112378;28;20023;-71
2021/06/28 01:09:23;;;;;;;28.17;14.45;;;;;;;19.82;76.10;99611.34;5112826;28;20032;-71
2021/06/28 01:11:49;;;;;;;36.25;14.63;;;;;;;19.69;77.85;99613.66;5111863;28;20027;-71
2021/06/28 01:14:16;;;;;;;36.20;15.27;;;;;;;20.00;75.47;99612.28;5112640;28;20035;-72
2021/06/28 01:16:43;;;;;;;24.55;13.23;;;;;;;19.86;75.13;99617.84;5112262;28;20039;-72
2021/06/28 01:19:12;;;;;;;17.90;13.77;;;;;;;19.83;76.42;99618.63;5111052;28;20036;-71
2021/06/28 01:21:40;;;;;;;15.82;13.43;;;;;;;19.68;76.34;99615.72;5112254;28;20522;-71
2021/06/28 01:24:06;;;;;;;32.88;14.43;;;;;;;19.74;76.66;99624.66;5112489;28;20028;-71
2021/06/28 01:26:35;;;;;;;28.02;14.60;;;;;;;20.00;76.27;99606.59;5112389;28;20453;-71
2021/06/28 01:29:01;;;;;;;28.13;14.77;;;;;;;20.09;76.19;99613.97;5112098;28;20023;-71
2021/06/28 01:31:27;;;;;;;26.10;14.15;;;;;;;20.08;75.65;99615.19;5112177;28;20035;-72
2021/06/28 01:33:55;;;;;;;22.30;13.75;;;;;;;19.97;75.45;99613.09;5110397;28;20030;-71
2021/06/28 01:36:20;;;;;;;26.38;14.93;;;;;;;19.98;75.96;99613.91;5112159;28;20059;-71
2021/06/28 01:38:48;;;;;;;22.30;13.15;;;;;;;20.02;75.78;99611.91;5111932;28;20107;-71
2021/06/28 01:41:13;;;;;;;23.75;11.45;;;;;;;20.04;74.84;99612.31;5110439;28;20027;-71
2021/06/28 01:43:41;;;;;;;20.50;12.52;;;;;;;20.09;74.34;99620.47;5111999;28;20035;-71
2021/06/28 01:46:07;;;;;;;22.42;13.82;;;;;;;19.99;74.31;99624.03;5111545;28;20252;-71
2021/06/28 01:48:32;;;;;;;30.58;12.93;;;;;;;19.94;74.95;99611.03;5111663;28;20031;-72
2021/06/28 01:50:58;;;;;;;20.52;12.98;;;;;;;19.94;74.81;99619.56;5111675;28;20069;-71
2021/06/28 01:53:23;;;;;;;24.38;12.63;;;;;;;19.85;75.89;99617.03;5111180;28;20393;-71
2021/06/28 01:55:49;;;;;;;36.13;15.55;;;;;;;19.88;75.75;99613.41;5110266;27;20020;-71
2021/06/28 01:58:16;;;;;;;27.33;13.00;;;;;;;19.96;74.92;99614.28;5111315;28;20080;-71
2021/06/28 02:00:51;;;;;;;23.55;12.70;;;;;;;20.03;74.57;99605.84;5110245;28;20035;-71
2021/06/28 02:03:22;;;;;;;20.02;12.45;;;;;;;20.11;74.22;99603.84;5110066;28;20428;-71
2021/06/28 02:05:56;;;;;;;22.65;13.93;;;;;;;19.94;75.00;99602.53;5111267;28;20062;-71
2021/06/28 02:08:25;;;;;;;23.05;13.48;;;;;;;20.05;75.06;99611.91;5110139;28;20035;-71
2021/06/28 02:10:53;;;;;;;20.15;12.57;;;;;;;20.00;75.47;99605.81;5109843;28;20029;-71
2021/06/28 02:13:23;;;;;;;19.67;11.50;;;;;;;20.18;74.23;99605.91;5109944;28;20405;-71
2021/06/28 02:15:50;;;;;;;23.20;12.15;;;;;;;20.16;73.96;99602.66;5111113;28;20035;-71
2021/06/28 02:18:16;;;;;;;19.50;11.77;;;;;;;20.13;73.78;99601.41;5111177;28;20024;-71
2021/06/28 02:20:42;;;;;;;21.38;11.35;;;;;;;20.04;73.93;99601.78;5111095;28;20105;-71
2021/06/28 02:23:22;;;;;;;20.90;11.48;;;;;;;19.93;74.90;99600.91;5110894;28;20046;-71
2021/06/28 02:25:49;;;;;;;19.27;11.27;;;;;;;19.80;75.29;99608.09;5109172;28;20179;-71
2021/06/28 02:28:15;;;;;;;22.95;12.95;;;;;;;19.91;74.42;99606.94;5109471;28;20039;-71
2021/06/28 02:30:40;;;;;;;18.48;12.10;;;;;;;19.87;74.28;99606.09;5111039;28;20479;-72
2021/06/28 02:33:06;;;;;;;23.40;12.32;;;;;;;19.66;75.00;99608.78;5109486;28;20520;-71
2021/06/28 02:35:32;;;;;;;24.85;13.82;;;;;;;19.55;75.15;99608.69;5111038;28;20496;-71
2021/06/28 02:37:57;;;;;;;28.77;13.82;;;;;;;19.45;75.49;99610.25;5110771;28;20034;-71
2021/06/28 02:40:23;;;;;;;30.83;13.85;;;;;;;19.35;75.74;99612.59;5110891;28;20456;-71
2021/06/28 02:42:48;;;;;;;32.08;19.15;;;;;;;19.48;75.43;99607.44;5109502;28;20055;-71
2021/06/28 02:45:14;;;;;;;29.83;13.90;;;;;;;19.46;75.08;99618.38;5109384;28;20073;-72
2021/06/28 02:47:39;;;;;;;26.90;14.32;;;;;;;19.38;75.52;99613.03;5109482;28;20035;-71
2021/06/28 02:50:10;;;;;;;39.00;18.45;;;;;;;19.18;75.92;99611.22;5110965;28;20381;-71
2021/06/28 02:52:36;;;;;;;28.15;14.38;;;;;;;18.90;76.67;99611.75;5110842;28;20024;-71
2021/06/28 02:55:04;;;;;;;28.17;13.43;;;;;;;18.85;76.89;99615.72;5110588;28;20035;-71
2021/06/28 02:57:30;;;;;;;29.27;12.77;;;;;;;18.77;76.86;99616.84;5110804;28;20032;-71
2021/06/28 02:59:55;;;;;;;30.67;12.40;;;;;;;18.87;76.27;99615.31;5109395;28;20031;-71
2021/06/28 03:02:20;;;;;;;32.78;12.15;;;;;;;18.73;77.16;99616.00;5109271;28;20046;-71
2021/06/28 03:04:46;;;;;;;24.67;13.20;;;;;;;18.86;76.72;99614.53;5110627;28;20054;-71
2021/06/28 03:07:11;;;;;;;28.73;12.70;;;;;;;18.91;76.65;99616.19;5110391;28;20416;-71
2021/06/28 03:09:37;;;;;;;25.90;12.85;;;;;;;18.77;77.49;99609.19;5109594;28;20536;-71
2021/06/28 03:12:02;;;;;;;28.27;13.68;;;;;;;18.87;77.51;99619.00;5109163;28;20024;-70
2021/06/28 03:14:28;;;;;;;27.05;13.75;;;;;;;18.98;77.56;99612.63;5122221;28;20512;-71
2021/06/28 03:16:53;;;;;;;29.40;13.00;;;;;;;19.10;77.69;99620.88;5110581;28;20577;-71
2021/06/28 03:19:19;;;;;;;19.20;13.98;;;;;;;19.22;77.27;99616.94;5097250;28;20027;-71
2021/06/28 03:21:44;;;;;;;30.40;13.48;;;;;;;19.21;76.79;99624.63;5110510;28;20068;-71
2021/06/28 03:24:10;;;;;;;21.35;12.90;;;;;;;19.32;76.27;99626.75;5110423;28;20096;-71
2021/06/28 03:26:35;;;;;;;22.33;13.02;;;;;;;19.45;75.78;99621.59;5110379;28;20505;-71
2021/06/28 03:29:01;;;;;;;34.90;13.40;;;;;;;19.31;76.09;99622.28;5110432;28;20039;-71
2021/06/28 03:31:30;;;;;;;23.33;13.15;;;;;;;19.29;76.83;99624.69;5110332;28;20329;-70
2021/06/28 03:33:56;;;;;;;26.37;14.33;;;;;;;19.21;76.78;99630.31;5097706;28;20032;-68
2021/06/28 03:36:21;;;;;;;28.60;15.00;;;;;;;19.22;77.17;99633.94;5112285;28;20433;-76
2021/06/28 03:38:47;;;;;;;27.40;13.77;;;;;;;19.28;76.80;99634.41;5114467;28;20220;-70
2021/06/28 03:41:12;;;;;;;25.38;14.10;;;;;;;19.22;77.11;99637.59;5113987;28;20043;-73
2021/06/28 03:43:38;;;;;;;24.10;13.82;;;;;;;19.15;77.20;99633.88;5105830;28;20485;-69
2021/06/28 03:46:03;;;;;;;33.17;13.40;;;;;;;19.14;77.60;99638.72;5113144;27;20551;-69
2021/06/28 03:48:29;;;;;;;30.50;13.68;;;;;;;19.27;77.16;99638.44;5124715;27;20027;-72
2021/06/28 03:50:54;;;;;;;27.20;13.32;;;;;;;19.29;77.28;99636.03;5128768;27;20088;-70
2021/06/28 03:53:20;;;;;;;22.60;13.20;;;;;;;19.27;77.65;99639.28;5127074;27;20023;-72
2021/06/28 03:55:46;;;;;;;28.88;13.95;;;;;;;19.32;77.53;99650.25;5132554;27;20027;-73
2021/06/28 03:58:11;;;;;;;21.60;12.30;;;;;;;19.39;76.96;99652.31;5116344;27;20059;-72
2021/06/28 04:00:37;;;;;;;33.70;14.77;;;;;;;19.44;77.41;99643.47;5113716;28;20074;-70
2021/06/28 04:03:05;;;;;;;17.83;13.07;;;;;;;19.46;77.33;99643.06;5110045;28;20046;-71
2021/06/28 04:05:30;;;;;;;26.92;13.32;;;;;;;19.55;77.53;99648.41;5113634;28;20024;-69
2021/06/28 04:07:56;;;;;;;20.58;12.15;;;;;;;19.62;76.84;99648.47;5113635;28;20556;-69
2021/06/28 04:10:23;;;;;;;20.55;12.95;;;;;;;19.65;76.84;99659.03;5112166;28;20024;-71
2021/06/28 04:12:50;;;;;;;31.73;13.85;;;;;;;19.68;77.09;99654.59;5114053;28;20443;-71
2021/06/28 04:15:18;;;;;;;30.17;14.63;;;;;;;19.77;76.82;99655.09;5112358;28;20035;-71
2021/06/28 04:17:49;;;;;;;28.80;13.48;;;;;;;19.89;76.77;99659.63;5112338;28;20026;-71
2021/06/28 04:20:17;;;;;;;21.23;12.73;;;;;;;20.06;76.41;99656.13;5112142;28;20061;-72
2021/06/28 04:22:44;;;;;;;22.20;12.43;;;;;;;19.92;76.22;99658.84;5112689;28;20063;-71
2021/06/28 04:25:12;;;;;;;20.80;12.65;;;;;;;19.89;76.93;99654.78;5112462;28;20111;-71
2021/06/28 04:27:38;;;;;;;21.40;12.10;;;;;;;19.83;75.98;99658.38;5111147;28;20082;-72
2021/06/28 04:30:07;;;;;;;28.15;13.45;;;;;;;19.81;76.78;99653.06;5111751;28;20470;-71
2021/06/28 04:32:35;;;;;;;21.80;13.48;;;;;;;19.84;76.14;99657.97;5109666;28;20023;-71
2021/06/28 04:35:00;;;;;;;21.98;12.85;;;;;;;19.85;75.29;99655.94;5109749;28;20047;-71
2021/06/28 04:37:26;;;;;;;20.38;13.32;;;;;;;19.77;76.30;99655.88;5110984;28;20034;-71
2021/06/28 04:39:51;;;;;;;21.38;14.35;;;;;;;19.71;77.81;99656.63;5110034;28;20019;-71
2021/06/28 04:42:17;;;;;;;23.30;15.38;;;;;;;19.78;78.44;99660.34;5113252;28;20240;-72
2021/06/28 04:44:42;;;;;;;22.40;15.27;;;;;;;19.75;78.68;99652.63;5111606;28;20028;-71
2021/06/28 04:47:08;;;;;;;29.52;14.70;;;;;;;19.94;77.33;99656.44;5112055;28;20036;-71
2021/06/28 04:49:33;;;;;;;26.55;14.80;;;;;;;20.00;77.21;99657.69;5111531;28;20130;-72
2021/06/28 04:51:59;;;;;;;28.77;14.13;;;;;;;20.14;76.98;99659.00;5111642;28;20051;-71
2021/06/28 04:54:24;;;;;;;27.13;13.38;;;;;;;20.33;76.08;99652.22;5111260;28;20092;-71
2021/06/28 04:56:50;;;;;;;28.48;14.27;;;;;;;20.26;76.94;99652.97;5112940;28;20027;-71
2021/06/28 04:59:17;;;;;;;19.55;14.00;;;;;;;20.42;77.21;99663.22;5112999;28;20043;-72
2021/06/28 05:01:43;;;;;;;25.02;14.98;;;;;;;20.51;77.04;99665.69;5112454;28;20030;-72
2021/06/28 05:04:08;;;;;;;31.00;14.20;;;;;;;20.46;78.25;99669.72;5112524;28;20104;-72
2021/06/28 05:06:34;;;;;;;22.88;14.80;;;;;;;20.56;76.54;99666.13;5112481;28;20489;-71
2021/06/28 05:08:59;;;;;;;33.13;18.67;;;;;;;20.58;77.60;99666.53;5097053;28;20397;-71
2021/06/28 05:11:25;;;;;;;25.13;15.13;;;;;;;20.68;76.57;99678.38;5112728;28;20662;-71
2021/06/28 05:13:50;;;;;;;24.27;15.18;;;;;;;20.64;76.55;99677.53;5112473;28;20488;-71
2021/06/28 05:16:15;;;;;;;29.20;15.77;;;;;;;20.88;76.76;99679.69;5112500;28;20085;-72
2021/06/28 05:18:41;;;;;;;32.17;16.42;;;;;;;21.13;76.42;99678.97;5112626;28;20032;-72
2021/06/28 05:21:06;;;;;;;34.83;16.17;;;;;;;21.21;74.88;99676.13;5112385;28;20038;-72
2021/06/28 05:23:33;;;;;;;17.55;9.98;;;;;;;21.24;73.34;99681.03;5112240;28;20028;-71
2021/06/28 05:25:58;;;;;;;16.15;10.52;;;;;;;21.34;73.30;99685.88;5112111;28;20127;-71
2021/06/28 05:28:24;;;;;;;19.13;11.30;;;;;;;21.43;73.89;99689.16;5112211;28;20058;-71
2021/06/28 05:30:49;;;;;;;18.98;11.05;;;;;;;21.45;72.92;99692.41;5112013;28;20035;-71
2021/06/28 05:33:15;;;;;;;18.60;10.48;;;;;;;21.54;71.60;99689.19;5112134;28;20028;-71
2021/06/28 05:35:41;;;;;;;16.85;10.13;;;;;;;21.58;70.99;99689.16;5112186;28;20577;-71
2021/06/28 05:38:06;;;;;;;17.52;9.88;;;;;;;21.62;71.50;99683.47;5110595;28;20119;-71
2021/06/28 05:40:32;;;;;;;22.25;9.88;;;;;;;21.86;70.80;99696.13;5110641;28;20023;-71
2021/06/28 05:42:57;;;;;;;23.80;10.45;;;;;;;21.88;72.16;99696.53;5111814;28;20028;-71
2021/06/28 05:45:23;;;;;;;23.65;10.30;;;;;;;21.92;71.60;99694.50;5111914;28;20089;-73
2021/06/28 05:47:48;;;;;;;13.27;10.35;;;;;;;22.16;71.30;99692.84;5111500;28;20503;-72
2021/06/28 05:50:17;;;;;;;15.32;12.35;;;;;;;22.21;71.91;99694.47;5110448;28;20066;-72
2021/06/28 05:52:43;;;;;;;14.60;10.73;;;;;;;22.39;70.42;99691.59;5111619;28;20111;-74
2021/06/28 05:55:10;;;;;;;23.92;9.63;;;;;;;22.45;70.51;99694.84;5110472;28;20032;-72
2021/06/28 05:57:36;;;;;;;17.33;10.00;;;;;;;22.53;71.06;99695.66;5111672;28;20024;-72
2021/06/28 06:00:08;;;;;;;16.70;9.55;;;;;;;22.67;68.86;99697.63;5110114;28;20500;-72
2021/06/28 06:02:34;;;;;;;20.73;9.93;;;;;;;22.81;69.40;99697.59;5110328;28;20031;-72
2021/06/28 06:04:59;;;;;;;21.50;11.52;;;;;;;22.81;70.19;99700.44;5111442;28;20409;-72
2021/06/28 06:07:25;;;;;;;14.10;9.30;;;;;;;23.16;68.42;99694.13;5111446;28;20038;-72
2021/06/28 06:09:50;;;;;;;19.13;9.65;;;;;;;22.94;68.55;99695.06;5111803;28;20031;-72
2021/06/28 06:12:16;;;;;;;16.17;9.35;;;;;;;23.13;67.18;99699.44;5111308;28;20023;-72
2021/06/28 06:14:41;;;;;;;11.90;9.27;;;;;;;23.31;69.14;99697.75;5111568;28;20054;-72
2021/06/28 06:17:07;;;;;;;11.75;7.53;;;;;;;23.36;64.95;99700.97;5111219;28;20122;-72
2021/06/28 06:19:32;;;;;;;13.57;8.73;;;;;;;23.32;67.60;99694.50;5111573;28;20039;-72
2021/06/28 06:21:58;;;;;;;13.43;8.40;;;;;;;23.54;65.80;99689.44;5111250;28;20023;-72
2021/06/28 06:24:27;;;;;;;16.88;8.55;;;;;;;23.78;65.21;99692.50;5111238;28;20122;-72
2021/06/28 06:26:53;;;;;;;18.23;9.18;;;;;;;23.96;63.93;99697.28;5109850;28;20090;-72
2021/06/28 06:29:18;;;;;;;13.63;8.98;;;;;;;23.91;64.42;99695.69;5111138;28;20027;-72
2021/06/28 06:31:44;;;;;;;16.10;9.07;;;;;;;23.97;64.34;99693.97;5111180;28;20031;-72
2021/06/28 06:34:09;;;;;;;14.82;8.93;;;;;;;24.19;62.63;99692.97;5109367;28;20064;-72
2021/06/28 06:36:35;;;;;;;13.07;10.00;;;;;;;24.35;63.11;99695.28;5111368;28;20023;-72
2021/06/28 06:39:03;;;;;;;19.52;10.20;;;;;;;24.38;63.57;99698.09;5111168;28;20530;-72
2021/06/28 06:41:30;;;;;;;13.73;8.20;;;;;;;24.46;63.20;99689.44;5110756;28;20051;-72
2021/06/28 06:43:56;;;;;;;12.70;7.28;;;;;;;24.74;62.12;99690.34;5111153;28;20050;-72
2021/06/28 06:46:21;;;;;;;11.63;8.88;;;;;;;24.80;61.58;99685.81;5110767;28;20420;-72
2021/06/28 06:48:47;;;;;;;11.07;8.18;;;;;;;24.73;63.44;99692.38;5111110;28;20027;-72
2021/06/28 06:51:12;;;;;;;18.52;7.97;;;;;;;24.85;61.40;99679.63;5109357;28;20520;-73
2021/06/28 06:53:38;;;;;;;15.20;6.78;;;;;;;25.08;58.19;99684.59;5110929;28;20043;-73
2021/06/28 06:56:05;;;;;;;15.07;7.05;;;;;;;25.11;59.62;99677.22;5095741;28;20024;-73
2021/06/28 06:58:33;;;;;;;15.60;7.82;;;;;;;25.24;59.72;99677.44;5102810;28;20493;-72
2021/06/28 07:00:59;;;;;;;10.30;6.55;;;;;;;25.17;59.43;99680.41;5109475;28;20055;-72
2021/06/28 07:03:24;;;;;;;11.95;6.57;;;;;;;25.38;59.43;99682.13;5110402;28;20497;-74
2021/06/28 07:05:50;;;;;;;11.00;6.93;;;;;;;25.75;56.39;99677.47;5110703;28;20408;-72
2021/06/28 07:08:16;;;;;;;11.63;6.70;;;;;;;25.73;54.92;99673.44;5110585;28;20043;-72
2021/06/28 07:10:43;;;;;;;17.77;6.55;;;;;;;25.68;57.39;99671.06;5112133;28;20019;-72
2021/06/28 07:13:09;;;;;;;15.68;6.85;;;;;;;26.04;55.59;99679.88;5114849;28;20088;-72
2021/06/28 07:15:34;;;;;;;11.00;6.25;;;;;;;26.05;54.48;99675.75;5114596;28;20023;-71
2021/06/28 07:18:00;;;;;;;16.27;7.43;;;;;;;26.08;55.81;99674.88;5116456;27;20478;-71
2021/06/28 07:20:25;;;;;;;22.23;6.88;;;;;;;25.97;55.20;99677.13;5113054;28;20390;-72
2021/06/28 07:22:52;;;;;;;10.38;6.45;;;;;;;26.12;50.70;99673.97;5114075;28;20069;-72
2021/06/28 07:25:19;;;;;;;6.82;6.00;;;;;;;26.20;50.97;99669.78;5114181;28;20036;-72
2021/06/28 07:27:44;;;;;;;14.38;6.90;;;;;;;26.28;52.46;99676.19;5114043;28;20477;-72
2021/06/28 07:30:12;;;;;;;11.27;5.85;;;;;;;26.33;50.81;99673.63;5097957;28;20074;-72
2021/06/28 07:32:38;;;;;;;21.27;6.57;;;;;;;26.47;50.79;99671.72;5109457;28;20168;-72
2021/06/28 07:35:05;;;;;;;15.52;7.40;;;;;;;26.51;51.19;99668.78;5099330;28;20056;-71
2021/06/28 07:37:31;;;;;;;9.55;6.70;;;;;;;26.55;53.37;99669.53;5109001;28;20093;-71
2021/06/28 07:39:57;;;;;;;11.13;6.65;;;;;;;26.75;52.38;99672.41;5103504;28;20024;-72
2021/06/28 07:42:24;;;;;;;7.28;6.07;;;;;;;26.71;52.01;99672.47;5112764;28;20031;-71
2021/06/28 07:44:50;;;;;;;13.88;7.20;;;;;;;26.81;50.33;99666.94;5114207;28;20099;-72
2021/06/28 07:47:15;;;;;;;14.65;7.03;;;;;;;26.82;51.64;99669.34;5113954;28;20134;-72
2021/06/28 07:49:41;;;;;;;13.20;7.07;;;;;;;26.90;51.55;99665.13;5113611;28;20495;-71
2021/06/28 07:52:09;;;;;;;10.18;6.70;;;;;;;26.87;50.85;99668.88;5113874;28;20110;-74
2021/06/28 07:54:35;;;;;;;7.65;6.53;;;;;;;26.99;50.03;99661.63;5113991;28;20031;-74
2021/06/28 07:57:01;;;;;;;10.48;6.85;;;;;;;27.05;51.05;99661.94;5114797;28;20077;-73
2021/06/28 07:59:26;;;;;;;10.23;6.10;;;;;;;27.21;50.68;99661.16;5113590;28;20039;-73
2021/06/28 08:01:52;;;;;;;18.90;7.20;;;;;;;27.31;50.75;99657.22;5113448;28;20043;-74
2021/06/28 08:04:17;;;;;;;14.35;7.30;;;;;;;27.46;49.78;99654.81;5113812;28;20446;-74
2021/06/28 08:06:43;;;;;;;11.32;7.00;;;;;;;27.52;49.68;99657.97;5113656;28;20500;-74
2021/06/28 08:09:09;;;;;;;11.27;6.53;;;;;;;27.60;50.22;99659.41;5113652;28;20080;-74
2021/06/28 08:11:34;;;;;;;13.88;6.57;;;;;;;27.73;47.82;99653.78;5112218;28;20494;-75
2021/06/28 08:14:01;;;;;;;12.00;6.40;;;;;;;27.93;47.45;99661.47;5111960;28;20437;-75
2021/06/28 08:16:28;;;;;;;7.18;6.18;;;;;;;27.95;47.32;99661.84;5113324;28;20032;-74
2021/06/28 08:18:53;;;;;;;10.27;5.82;;;;;;;28.03;47.44;99659.59;5111869;28;20028;-74
2021/06/28 08:21:20;;;;;;;11.63;6.13;;;;;;;28.07;48.21;99663.16;5112734;28;20035;-74
2021/06/28 08:23:46;;;;;;;12.48;6.95;;;;;;;28.13;47.60;99660.53;5112754;28;20106;-74
2021/06/28 08:26:13;;;;;;;12.25;6.45;;;;;;;28.29;45.67;99669.16;5111655;28;20431;-72
2021/06/28 08:28:39;;;;;;;23.52;6.63;;;;;;;28.49;46.34;99667.41;5113217;28;20034;-71
2021/06/28 08:31:05;;;;;;;17.25;7.28;;;;;;;28.49;48.59;99661.66;5113039;28;20360;-71
2021/06/28 08:33:32;;;;;;;12.63;6.15;;;;;;;28.67;43.97;99661.16;5113118;28;20032;-71
2021/06/28 08:35:58;;;;;;;11.80;5.68;;;;;;;28.61;43.65;99660.06;5112971;28;20047;-73
2021/06/28 08:38:24;;;;;;;13.82;5.90;;;;;;;28.71;42.49;99665.50;5113064;28;20034;-73
2021/06/28 08:40:50;;;;;;;9.63;5.18;;;;;;;28.62;40.19;99650.19;5112952;28;20115;-75
2021/06/28 08:43:16;;;;;;;11.65;4.57;;;;;;;28.77;39.58;99651.38;5112807;28;20031;-72
2021/06/28 08:45:46;;;;;;;25.63;7.55;;;;;;;28.81;43.56;99652.13;5112957;28;20027;-73
2021/06/28 08:48:12;;;;;;;8.60;4.97;;;;;;;28.88;42.50;99651.09;5112623;28;20499;-72
2021/06/28 08:50:40;;;;;;;7.68;5.60;;;;;;;29.02;43.14;99640.38;5112643;28;20027;-72
2021/06/28 08:53:07;;;;;;;16.27;6.28;;;;;;;29.29;41.63;99643.63;5111212;28;20034;-72
2021/06/28 08:55:33;;;;;;;8.93;5.57;;;;;;;29.25;42.45;99648.69;5106661;28;20032;-74
2021/06/28 08:58:02;;;;;;;13.65;5.60;;;;;;;29.38;41.93;99642.13;5106642;28;20026;-75
2021/06/28 09:00:28;;;;;;;7.63;5.00;;;;;;;29.50;43.70;99638.47;5107983;28;20031;-74
2021/06/28 09:03:02;;;;;;;10.73;5.20;;;;;;;29.57;41.43;99634.53;5099415;28;20028;-74
2021/06/28 09:05:28;;;;;;;8.70;5.47;;;;;;;29.74;40.19;99629.44;5102364;28;20101;-75
2021/06/28 09:08:10;;;;;;;18.05;5.45;;;;;;;29.79;37.79;99631.72;5112401;28;20060;-74
2021/06/28 09:10:40;;;;;;;11.93;6.40;;;;;;;29.80;38.30;99632.53;5099686;28;20031;-75
2021/06/28 09:13:05;;;;;;;9.98;5.00;;;;;;;29.86;39.70;99632.75;5110753;28;20042;-75
2021/06/28 09:15:38;;;;;;;13.13;4.40;;;;;;;29.92;37.15;99623.03;5110786;28;20035;-75
2021/06/28 09:18:22;;;;;;;14.48;4.88;;;;;;;30.06;36.22;99621.78;5108240;28;20470;-75
2021/06/28 09:20:50;;;;;;;6.20;4.93;;;;;;;30.14;35.76;99622.31;5108135;28;20048;-76
2021/06/28 09:23:24;;;;;;;8.23;3.83;;;;;;;30.22;29.00;99619.97;5112033;28;20035;-75
2021/06/28 09:25:55;;;;;;;4.63;4.20;;;;;;;30.10;31.32;99616.66;5108165;28;20131;-75
2021/06/28 09:28:33;;;;;;;4.65;3.53;;;;;;;30.20;31.92;99619.63;5110247;28;20036;-75
2021/06/28 09:30:58;;;;;;;4.40;3.97;;;;;;;30.25;32.59;99622.72;5111566;28;20088;-73
2021/06/28 09:33:24;;;;;;;4.80;3.83;;;;;;;30.12;30.74;99619.09;5111495;28;20043;-74
2021/06/28 09:35:49;;;;;;;12.05;4.20;;;;;;;30.15;29.37;99623.09;5111839;28;20417;-74
2021/06/28 09:38:47;;;;;;;9.50;4.00;;;;;;;30.21;29.34;99621.25;5112778;28;20027;-75
2021/06/28 09:41:22;;;;;;;6.55;3.20;;;;;;;30.28;29.58;99618.06;5094537;28;20031;-74
2021/06/28 09:43:48;;;;;;;5.72;3.50;;;;;;;30.18;30.62;99614.31;5113450;28;20027;-73
2021/06/28 09:46:19;;;;;;;4.68;4.03;;;;;;;30.39;31.75;99609.84;5111330;28;20092;-74
2021/06/28 09:48:50;;;;;;;9.48;3.95;;;;;;;30.58;30.54;99609.16;5110150;28;20039;-75
2021/06/28 09:51:22;;;;;;;3.83;3.42;;;;;;;30.79;30.18;99614.13;5101221;28;20080;-72
2021/06/28 09:53:53;;;;;;;3.90;3.50;;;;;;;30.86;31.20;99618.03;5111734;28;20028;-75
2021/06/28 09:56:29;;;;;;;10.57;4.40;;;;;;;30.76;29.39;99620.03;5111290;28;20103;-71
2021/06/28 09:58:57;;;;;;;4.88;3.15;;;;;;;30.86;31.60;99612.25;5111512;28;20349;-74
2021/06/28 10:01:26;;;;;;;8.00;4.43;;;;;;;30.94;31.03;99611.50;5109892;28;20092;-73
2021/06/28 10:03:54;;;;;;;9.13;4.43;;;;;;;31.13;31.00;99608.66;5111295;28;20027;-73
2021/06/28 10:09:00;;;;;;;8.07;3.47;;;;;;;31.25;30.05;99615.66;5111375;28;20489;-75
2021/06/28 10:11:27;;;;;;;5.10;3.43;;;;;;;31.15;28.50;99600.38;5110213;28;20050;-75
2021/06/28 10:13:55;;;;;;;4.60;4.20;;;;;;;31.22;30.44;99596.41;5111333;28;20513;-75
2021/06/28 10:16:24;;;;;;;4.50;4.10;;;;;;;31.33;32.90;99595.94;5111344;28;20060;-77
2021/06/28 10:18:52;;;;;;;6.25;3.55;;;;;;;31.42;28.57;99601.75;5111276;28;20485;-75
2021/06/28 10:21:17;;;;;;;7.65;3.72;;;;;;;31.43;29.97;99591.00;5111144;28;20036;-76
2021/06/28 10:23:43;;;;;;;6.18;3.60;;;;;;;31.43;28.57;99588.91;5117067;27;20034;-76
2021/06/28 10:26:09;;;;;;;4.03;3.35;;;;;;;31.56;27.69;99596.66;5124594;27;20042;-75
2021/06/28 10:28:36;;;;;;;4.38;2.88;;;;;;;31.54;28.69;99591.34;5130629;27;20418;-75
2021/06/28 10:31:03;;;;;;;5.97;3.63;;;;;;;31.60;29.49;99592.31;5110662;27;20055;-74
2021/06/28 10:33:28;;;;;;;4.38;3.45;;;;;;;31.63;31.29;99585.59;5116473;27;20110;-74
2021/06/28 10:36:25;;;;;;;5.97;3.20;;;;;;;31.82;28.85;99587.72;5122114;27;20122;-74
2021/06/28 10:38:54;;;;;;;2.83;2.53;;;;;;;31.88;29.96;99580.03;5098336;28;20024;-74
2021/06/28 10:41:52;;;;;;;6.53;3.50;;;;;;;31.96;29.41;99581.31;5119667;27;20068;-74
2021/06/28 10:44:21;;;;;;;3.80;2.67;;;;;;;31.96;26.61;99575.53;5110254;28;20043;-73
2021/06/28 10:46:58;;;;;;;3.00;2.70;;;;;;;31.96;30.09;99566.84;5108729;28;20516;-74
2021/06/28 10:49:46;;;;;;;4.53;3.00;;;;;;;32.07;28.23;99564.28;5110625;28;20032;-74
2021/06/28 10:52:33;;;;;;;5.63;2.97;;;;;;;32.12;29.17;99568.59;5106702;28;20076;-75
2021/06/28 10:54:59;;;;;;;4.38;2.90;;;;;;;32.23;29.52;99565.25;5113532;28;20497;-74
2021/06/28 10:57:39;;;;;;;4.90;2.65;;;;;;;32.45;28.68;99561.34;5119293;28;20038;-74
2021/06/28 11:00:05;;;;;;;6.72;2.97;;;;;;;32.36;28.06;99562.19;5111979;27;20020;-75
2021/06/28 11:02:42;;;;;;;6.03;2.92;;;;;;;32.28;26.13;99553.00;5109920;28;20055;-75
2021/06/28 11:05:10;;;;;;;3.88;2.55;;;;;;;32.35;28.42;99555.63;5108940;28;20099;-75
2021/06/28 11:07:47;;;;;;;4.70;2.97;;;;;;;32.51;27.05;99559.44;5109286;28;20059;-75
2021/06/28 11:10:34;;;;;;;4.10;2.97;;;;;;;32.54;28.70;99546.88;5108663;28;20131;-75
2021/06/28 11:13:35;;;;;;;7.32;3.72;;;;;;;32.70;26.66;99547.78;5098425;28;20063;-75
2021/06/28 11:16:29;;;;;;;2.72;2.50;;;;;;;32.54;24.34;99543.97;5113854;28;20036;-75
2021/06/28 11:18:55;;;;;;;2.97;2.72;;;;;;;32.57;27.51;99545.91;5108046;28;20035;-75
2021/06/28 11:21:41;;;;;;;4.05;2.30;;;;;;;32.63;26.58;99543.97;5108111;28;20041;-74
2021/06/28 11:24:07;;;;;;;4.10;2.50;;;;;;;32.49;23.67;99533.06;5109932;28;20031;-74
2021/06/28 11:26:36;;;;;;;4.18;2.00;;;;;;;32.49;25.71;99535.97;5105353;28;20020;-74